Reno - Stead, NV

4:55 PM PDT on August 20, 2017 (GMT -0700)
Reno - Stead

Weather History for KRTS - July, 2013

Change the Weather History Date:

Monday, July 22, 2013

  Actual Average (KRNO) Record (KRNO)
Temperature  
Mean Temperature 82 °F -  
Max Temperature 95 °F 92 °F 104 °F (2003)
Min Temperature 68 °F 51 °F 37 °F (1987)
Cooling Degree Days 16    
Growing Degree Days 32 (Base 50)    
Moisture  
Dew Point 41 °F    
Average Humidity 26    
Maximum Humidity 46    
Minimum Humidity 11    
Precipitation  
Precipitation 0.00 in - - ()
Sea Level Pressure  
Sea Level Pressure 30.11 in    
Wind  
Wind Speed 9 mph (WNW)    
Max Wind Speed 24 mph    
Max Gust Speed 30 mph    
Visibility 10 miles    
Events Rain    
Averages and records for this station are not official NWS values.
T = Trace of Precipitation, MM = Missing Value Source: NWS Daily Summary

Daily Weather History Graph

Daily Weather History Graph

Search for Another Location

Airport or City:

Trip Planner

Search our weather history database for the weather conditions in past years. The results will help you decide how hot, cold, wet, or windy it might be!

Date:

Astronomy

Jul. 22, 2013 Rise Set
Actual Time 5:50 AM PDT 8:21 PM PDT
Civil Twilight 5:19 AM PDT 8:52 PM PDT
Nautical Twilight 4:40 AM PDT 9:30 PM PDT
Astronomical Twilight 3:57 AM PDT 10:13 PM PDT
Moon 8:11 PM PDT (7/22) 5:52 AM PDT (7/22)
Length of Visible Light 15h 33m
Length of Day
14h 31m
Full, 100% of the Moon is Illuminated
Jul 22
Full
Jul 29
Last Quarter
Aug 6
New
Aug 14
First Quarter
Aug 20
Full

Hourly Weather History & Observations

Time (PDT) Temp. Dew Point Humidity Pressure Visibility Wind Dir Wind Speed Gust Speed Precip Events Conditions
12:15 AM 77.0 °F 37.4 °F 24% 30.08 in 10.0 mi NW 6.9 mph - N/A   Clear
12:35 AM 75.2 °F 37.4 °F 25% 30.08 in 10.0 mi WNW 10.4 mph - N/A   Clear
12:55 AM 73.4 °F 39.2 °F 29% 30.08 in 10.0 mi WNW 6.9 mph - N/A   Clear
1:15 AM 77.0 °F 39.2 °F 26% 30.08 in 10.0 mi NW 9.2 mph - N/A   Clear
1:35 AM 75.2 °F 39.2 °F 27% 30.09 in 10.0 mi NNW 4.6 mph - N/A   Clear
1:55 AM 71.6 °F 39.2 °F 31% 30.08 in 10.0 mi NW 5.8 mph - N/A   Clear
2:15 AM 71.6 °F 39.2 °F 31% 30.08 in 10.0 mi NW 5.8 mph - N/A   Clear
2:35 AM 69.8 °F 37.4 °F 31% 30.08 in 10.0 mi WNW 8.1 mph - N/A   Clear
2:55 AM 71.6 °F 39.2 °F 31% 30.09 in 10.0 mi West 6.9 mph - N/A   Clear
3:15 AM 71.6 °F 37.4 °F 29% 30.09 in 10.0 mi West 10.4 mph - N/A   Clear
3:35 AM 71.6 °F 39.2 °F 31% 30.09 in 10.0 mi West 4.6 mph - N/A   Clear
3:55 AM 69.8 °F 39.2 °F 33% 30.10 in 10.0 mi WNW 6.9 mph - N/A   Clear
4:15 AM 71.6 °F 41.0 °F 33% 30.10 in 10.0 mi NNW 4.6 mph - N/A   Clear
4:35 AM 68.0 °F 41.0 °F 37% 30.10 in 10.0 mi WNW 6.9 mph - N/A   Clear
4:55 AM 69.8 °F 44.6 °F 40% 30.11 in 10.0 mi West 11.5 mph - N/A   Clear
5:15 AM 69.8 °F 44.6 °F 40% 30.12 in 10.0 mi WNW 9.2 mph - N/A   Clear
5:35 AM 69.8 °F 44.6 °F 40% 30.13 in 10.0 mi West 8.1 mph - N/A   Clear
5:55 AM 68.0 °F 44.6 °F 43% 30.13 in 10.0 mi West 6.9 mph - N/A   Clear
6:15 AM 68.0 °F 44.6 °F 43% 30.13 in 10.0 mi West 8.1 mph - N/A   Clear
6:35 AM 68.0 °F 46.4 °F 46% 30.13 in 10.0 mi NW 4.6 mph - N/A   Clear
6:55 AM 71.6 °F 46.4 °F 41% 30.14 in 10.0 mi West 5.8 mph - N/A   Clear
7:15 AM 73.4 °F 46.4 °F 38% 30.14 in 10.0 mi NW 4.6 mph - N/A   Clear
7:35 AM 73.4 °F 46.4 °F 38% 30.15 in 10.0 mi WNW 4.6 mph - N/A   Clear
7:55 AM 75.2 °F 46.4 °F 36% 30.15 in 10.0 mi West 8.1 mph - N/A   Clear
8:15 AM 77.0 °F 46.4 °F 34% 30.15 in 10.0 mi West 9.2 mph - N/A   Clear
8:35 AM 77.0 °F 44.6 °F 32% 30.16 in 10.0 mi WNW 11.5 mph - N/A   Clear
8:55 AM 78.8 °F 44.6 °F 30% 30.16 in 10.0 mi West 11.5 mph - N/A   Clear
9:15 AM 80.6 °F 44.6 °F 28% 30.15 in 10.0 mi West 11.5 mph - N/A   Clear
9:35 AM 82.4 °F 44.6 °F 26% 30.15 in 10.0 mi West 11.5 mph - N/A   Clear
9:55 AM 84.2 °F 42.8 °F 23% 30.15 in 10.0 mi West 9.2 mph - N/A   Clear
10:15 AM 84.2 °F 42.8 °F 23% 30.15 in 10.0 mi NNW 8.1 mph - N/A   Clear
10:35 AM 84.2 °F 41.0 °F 22% 30.15 in 10.0 mi West 5.8 mph - N/A   Clear
10:55 AM 84.2 °F 41.0 °F 22% 30.15 in 10.0 mi NNW 4.6 mph - N/A   Clear
11:15 AM 86.0 °F 41.0 °F 20% 30.15 in 10.0 mi North - - N/A   Clear
11:35 AM 86.0 °F 41.0 °F 20% 30.14 in 10.0 mi NW 4.6 mph - N/A   Clear
11:50 AM 86.0 °F 39.2 °F 19% 30.14 in 10.0 mi NNW 3.5 mph - N/A   Clear
12:15 PM 87.8 °F 39.2 °F 18% 30.13 in 10.0 mi SSW 5.8 mph - N/A   Clear
12:35 PM 91.4 °F 37.4 °F 15% 30.13 in 10.0 mi NW 4.6 mph - N/A   Clear
12:55 PM 89.6 °F 37.4 °F 16% 30.13 in 10.0 mi WNW 4.6 mph - N/A   Clear
1:15 PM 89.6 °F 37.4 °F 16% 30.12 in 10.0 mi NW 3.5 mph - N/A   Clear
1:35 PM 89.6 °F 35.6 °F 15% 30.11 in 10.0 mi ESE 4.6 mph - N/A Rain Light Rain
1:55 PM 91.4 °F 37.4 °F 15% 30.11 in 10.0 mi Calm Calm - N/A   Clear
2:15 PM 91.4 °F 35.6 °F 14% 30.10 in 10.0 mi Calm Calm - N/A   Clear
2:35 PM 93.2 °F 32.0 °F 11% 30.09 in 10.0 mi SW 3.5 mph - N/A   Clear
2:55 PM 93.2 °F 33.8 °F 12% 30.09 in 10.0 mi ENE 5.8 mph - N/A   Clear
3:15 PM 93.2 °F 35.6 °F 13% 30.08 in 10.0 mi SSW 4.6 mph - N/A   Clear
3:35 PM 95.0 °F 35.6 °F 12% 30.07 in 10.0 mi NNW 8.1 mph - N/A   Clear
3:50 PM 93.2 °F 33.8 °F 12% 30.07 in 10.0 mi NW 10.4 mph - N/A   Clear
4:15 PM 95.0 °F 35.6 °F 12% 30.06 in 10.0 mi NNW 9.2 mph 17.3 mph N/A   Clear
4:35 PM 95.0 °F 35.6 °F 12% 30.06 in 10.0 mi NNW 5.8 mph - N/A   Clear
4:55 PM 93.2 °F 35.6 °F 13% 30.05 in 10.0 mi NNW 3.5 mph - N/A   Clear
5:15 PM 93.2 °F 35.6 °F 13% 30.05 in 10.0 mi North 6.9 mph - N/A   Partly Cloudy
5:35 PM 91.4 °F 46.4 °F 21% 30.05 in 10.0 mi WNW 16.1 mph 24.2 mph N/A   Mostly Cloudy
5:55 PM 89.6 °F 46.4 °F 22% 30.05 in 10.0 mi WNW 19.6 mph 23.0 mph N/A   Partly Cloudy
6:15 PM 89.6 °F 46.4 °F 22% 30.05 in 10.0 mi NW 18.4 mph 25.3 mph N/A   Clear
6:35 PM 89.6 °F 48.2 °F 24% 30.06 in 10.0 mi WNW 19.6 mph 25.3 mph N/A   Clear
6:55 PM 87.8 °F 46.4 °F 24% 30.06 in 10.0 mi WNW 18.4 mph 27.6 mph N/A   Clear
7:15 PM 86.0 °F 46.4 °F 25% 30.07 in 10.0 mi WNW 18.4 mph 26.5 mph N/A   Clear
7:35 PM 84.2 °F 44.6 °F 25% 30.08 in 10.0 mi West 20.7 mph 26.5 mph N/A   Clear
7:55 PM 82.4 °F 44.6 °F 26% 30.09 in 10.0 mi West 17.3 mph 21.9 mph N/A   Clear
8:15 PM 82.4 °F 44.6 °F 26% 30.09 in 10.0 mi WNW 16.1 mph 26.5 mph N/A   Clear
8:35 PM 80.6 °F 44.6 °F 28% 30.09 in 10.0 mi WNW 24.2 mph 29.9 mph N/A   Clear
8:55 PM 78.8 °F 44.6 °F 30% 30.10 in 10.0 mi WNW 20.7 mph 27.6 mph N/A   Clear
9:15 PM 78.8 °F 42.8 °F 28% 30.11 in 10.0 mi WNW 21.9 mph 27.6 mph N/A   Clear
9:35 PM 77.0 °F 41.0 °F 28% 30.12 in 10.0 mi WNW 19.6 mph 25.3 mph N/A   Clear
9:55 PM 77.0 °F 41.0 °F 28% 30.12 in 10.0 mi WNW 20.7 mph 28.8 mph N/A   Clear
10:15 PM 77.0 °F 39.2 °F 26% 30.13 in 10.0 mi WNW 21.9 mph 28.8 mph N/A   Clear
10:35 PM 75.2 °F 39.2 °F 27% 30.14 in 10.0 mi WNW 23.0 mph 28.8 mph N/A   Clear
10:55 PM 75.2 °F 37.4 °F 25% 30.14 in 10.0 mi WNW 18.4 mph - N/A   Clear
11:15 PM 75.2 °F 37.4 °F 25% 30.17 in 10.0 mi SW 12.7 mph - N/A   Clear
11:35 PM 75.2 °F 37.4 °F 25% 30.17 in 10.0 mi WNW 12.7 mph - N/A   Clear
11:55 PM 73.4 °F 37.4 °F 27% 30.18 in 10.0 mi North - - N/A   Clear